McDonald, KS

7:11 PM CST on December 22, 2014 (GMT -0600)
Sunflower Aero, Inc | Change Station
CLOSE
Current Station
Personal Weather Station
Location: Atwood, KS
Elevation: 2956 ft
Nearby Weather Stations
Active Advisory: High Wind Watch

Elev 2956 ft 39.84 °N, 101.05 °W | Updated 1 second ago

Clear
Clear
36.3 °F
Feels Like 26 °F
N
19.0
Wind Variable Wind from West
Gusts 20.0 mph

Today
High -- | Low -- °F
--% Chance of Precip.
Yesterday
High -- | Low -- °F
Precip. -- in
8:03 AM 5:24 PM
New Moon, 1% visible
Pressure 29.67 in
Visibility 10.0 miles
Clouds Scattered Clouds 11000 ft
Windchill 26 °F
Dew Point 26 °F
Humidity 66%
Rainfall 0.00 in
Snow Depth Not available.
UV 0 out of 12
Pollen .10 out of 12
Air Quality Not available.
Flu Activity Not available.
METAR KSYF 230055Z AUTO 29013KT 10SM SCT110 03/M04 A2967 RMK AO2 T00261043

More Conditions Fewer Conditions

Pressure 29.67 in
Visibility 10.0 miles
Clouds Scattered Clouds 11000 ft
Windchill 26 °F
Dew Point 26 °F
Humidity 66%
Rainfall 0.00 in
Snow Depth Not available.
UV 0 out of 12
Pollen .10 out of 12
Air Quality Not available.
Flu Activity Not available.
METAR KSYF 230055Z AUTO 29013KT 10SM SCT110 03/M04 A2967 RMK AO2 T00261043

More Conditions Fewer Conditions

10-Day Weather Forecast

Almanac

Astronomy

Dec. 22, 2014 Rise Set
Actual Time
Civil Twilight
Nautical Twilight
Astronomical Twilight
Moon
Length of Visible Light
Length of Day
Tomorrow will be .
, % of the Moon is Illuminated

Today's Extremes

State Highs State Lows

Community

WunderPhotos

Upload Photos

1,779,745 photos uploaded!

WunderBlogs® & News

Nearby

Air Quality

  Air Quality AQ Index Pollutant
Not available.

Snow Depth

Station Depth Elevation

Earthquake Activity

City Distance Mag. Time & Date
Minimum magnitude displayed is 2.5.

Coastal Water Temperatures

Place Temperature

Nearby Weather Stations